Time;durP1;ratioP1;P1;durP2;ratioP2;P2;SDS_P1;SDS_P2;PMS_P1;PMS_P2;Temp;Humidity;BMP_temperature;BMP_pressure;BME280_temperature;BME280_humidity;BME280_pressure;Samples;Min_cycle;Max_cycle;Signal;HPM_P1;HPM_P2
2022/06/28 00:01:58;;;;;;;1.23;1.10;;;20.80;93.30;;;21.38;58.47;99148.09;4982620;28;114130;-87
2022/06/28 00:04:24;;;;;;;1.23;1.13;;;20.80;93.20;;;21.39;58.18;99149.72;4985786;28;124073;-89
2022/06/28 00:06:51;;;;;;;1.30;1.17;;;20.80;93.60;;;21.41;58.29;99146.53;4980500;28;122899;-88
2022/06/28 00:09:18;;;;;;;1.27;0.90;;;20.80;93.30;;;21.42;58.24;99148.16;4987354;28;115411;-89
2022/06/28 00:11:45;;;;;;;1.20;1.10;;;20.80;93.30;;;21.43;58.12;99143.34;4973250;28;115520;-87
2022/06/28 00:16:58;;;;;;;1.00;0.90;;;20.80;93.10;;;21.36;57.75;99150.44;4988190;28;124334;-88
2022/06/28 00:19:24;;;;;;;1.30;1.00;;;20.80;93.00;;;21.36;57.71;99156.06;4986020;28;114639;-87
2022/06/28 00:21:51;;;;;;;1.37;1.10;;;20.80;93.00;;;21.38;57.38;99169.75;4989076;28;114451;-88
2022/06/28 00:24:19;;;;;;;1.60;1.00;;;20.80;93.00;;;21.38;57.96;99172.56;4977895;28;124513;-87
2022/06/28 00:26:46;;;;;;;1.10;1.00;;;20.80;93.00;;;21.40;57.73;99175.84;4978057;28;122673;-88
2022/06/28 00:29:13;;;;;;;1.20;1.10;;;20.80;93.20;;;21.39;57.88;99177.03;4989662;28;113753;-88
2022/06/28 00:31:39;;;;;;;1.30;0.97;;;20.80;92.90;;;21.38;57.74;99170.56;4989309;28;114608;-87
2022/06/28 00:34:08;;;;;;;0.93;0.83;;;20.80;92.90;;;21.38;57.90;99181.81;4985091;28;124745;-88
2022/06/28 00:36:35;;;;;;;1.30;1.10;;;20.80;92.90;;;21.37;57.60;99177.41;4981916;28;124877;-88
2022/06/28 00:39:02;;;;;;;1.40;1.30;;;20.80;92.80;;;21.38;57.29;99176.19;4991168;28;114086;-88
2022/06/28 00:41:29;;;;;;;1.10;1.00;;;20.80;92.80;;;21.38;57.34;99167.75;4981648;28;113933;-88
2022/06/28 00:43:56;;;;;;;1.00;0.90;;;20.80;92.80;;;21.40;57.56;99179.44;4993261;28;123052;-88
2022/06/28 00:46:24;;;;;;;1.10;0.97;;;20.80;92.80;;;21.39;57.66;99171.41;4962699;28;124356;-88
2022/06/28 00:48:50;;;;;;;1.43;0.97;;;20.80;92.80;;;21.39;57.72;99165.78;4977887;28;114437;-88
2022/06/28 00:51:19;;;;;;;1.17;1.07;;;20.80;92.90;;;21.38;57.89;99162.13;4976234;28;114024;-88
2022/06/28 00:53:46;;;;;;;1.33;1.10;;;20.80;92.90;;;21.40;57.77;99167.41;4991297;28;124147;-87
2022/06/28 00:56:12;;;;;;;1.00;0.90;;;20.80;92.90;;;21.39;57.67;99165.78;4994445;28;122478;-88
2022/06/28 00:58:39;;;;;;;1.03;0.90;;;22.10;93.40;;;21.39;57.64;99171.41;4977261;28;115261;-87
2022/06/28 01:01:08;;;;;;;1.40;0.93;;;20.80;92.90;;;21.36;57.96;99180.56;4975101;28;114963;-88
2022/06/28 01:03:35;;;;;;;1.10;0.90;;;20.80;92.80;;;21.35;57.49;99173.31;4975545;28;125952;-89
2022/06/28 01:06:03;;;;;;;2.03;0.93;;;20.80;92.80;;;21.32;57.72;99174.06;4986697;28;124199;-88
2022/06/28 01:08:29;;;;;;;1.07;0.97;;;20.80;92.80;;;21.30;57.40;99176.41;4981807;28;114732;-87
2022/06/28 01:10:58;;;;;;;1.10;1.00;;;20.70;92.70;;;21.28;57.43;99168.38;4975311;28;114074;-89
2022/06/28 01:13:24;;;;;;;1.30;1.20;;;20.70;92.70;;;21.28;57.68;99173.16;4974097;28;124394;-89
2022/06/28 01:15:51;;;;;;;1.13;1.03;;;20.70;92.70;;;21.24;57.71;99175.13;4993883;28;125767;-88
2022/06/28 01:18:19;;;;;;;1.13;1.03;;;20.70;92.70;;;21.19;57.57;99167.81;4999043;28;114713;-88
2022/06/28 01:20:46;;;;;;;1.20;1.10;;;20.70;92.70;;;21.12;57.48;99173.31;5003752;28;113910;-87
2022/06/28 01:23:19;;;;;;;1.03;0.93;;;20.60;92.60;;;21.08;57.98;99172.44;4993307;28;125103;-87
2022/06/28 01:25:45;;;;;;;1.37;1.20;;;20.60;92.70;;;21.06;57.96;99186.03;4984706;28;124329;-88
2022/06/28 01:28:12;;;;;;;1.07;0.97;;;20.60;92.70;;;21.04;57.80;99180.81;4986869;28;114530;-88
2022/06/28 01:30:39;;;;;;;1.23;0.90;;;20.50;92.70;;;21.04;57.83;99175.19;4983242;28;113973;-88
2022/06/28 01:33:06;;;;;;;1.33;1.23;;;20.50;92.80;;;21.05;58.04;99182.41;4977419;28;124174;-87
2022/06/28 01:35:32;;;;;;;1.20;1.10;;;20.50;92.80;;;21.05;58.16;99174.00;4981131;28;124118;-88
2022/06/28 01:38:01;;;;;;;1.57;1.10;;;20.50;92.90;;;21.06;58.31;99186.84;4978789;28;114447;-88
2022/06/28 01:40:27;;;;;;;1.63;1.20;;;20.50;92.90;;;21.06;58.03;99184.03;4979275;28;114867;-88
2022/06/28 01:42:54;;;;;;;1.20;1.00;;;20.50;92.90;;;21.06;58.42;99191.66;4986430;28;124123;-88
2022/06/28 01:45:21;;;;;;;1.40;1.20;;;20.50;93.00;;;21.05;58.24;99202.09;4977134;28;123946;-89
2022/06/28 01:47:48;;;;;;;1.10;1.00;;;20.50;93.00;;;21.06;58.29;99188.84;4989455;28;115181;-89
2022/06/28 01:50:14;;;;;;;1.00;0.90;;;20.50;93.00;;;21.06;58.10;99195.28;4964855;28;113955;-88
2022/06/28 01:52:43;;;;;;;1.17;1.00;;;20.50;93.00;;;21.06;57.96;99186.03;4972807;28;123411;-89
2022/06/28 01:55:10;;;;;;;2.90;1.10;;;20.50;93.00;;;21.02;58.27;99185.97;4976891;28;123893;-89
2022/06/28 01:57:39;;;;;;;1.20;1.10;;;20.50;93.00;;;21.02;58.58;99191.59;4982870;28;114150;-89
2022/06/28 02:00:08;;;;;;;1.20;1.00;;;20.50;93.00;;;20.99;58.22;99195.16;4978349;28;112944;-87
2022/06/28 02:02:35;;;;;;;1.00;0.90;;;20.50;93.00;;;20.98;58.30;99189.91;4990208;28;125833;-88
2022/06/28 02:05:02;;;;;;;1.20;1.10;;;20.40;92.90;;;20.96;57.88;99181.88;4975680;28;123796;-88
2022/06/28 02:07:29;;;;;;;1.20;1.10;;;20.40;92.90;;;20.95;58.29;99185.84;4974515;28;114751;-86
2022/06/28 02:09:56;;;;;;;1.20;1.10;;;20.40;92.90;;;20.92;58.08;99192.19;4973397;28;115035;-87
2022/06/28 02:12:23;;;;;;;5.23;0.93;;;20.40;93.00;;;20.92;57.96;99192.19;4973647;28;123918;-89
2022/06/28 02:14:49;;;;;;;1.03;0.93;;;20.40;93.00;;;20.93;58.09;99196.66;4983001;28;123742;-87
2022/06/28 02:17:16;;;;;;;1.10;1.00;;;20.40;93.10;;;20.93;58.02;99200.28;4974855;28;113272;-89
2022/06/28 02:19:42;;;;;;;2.60;0.83;;;20.40;93.10;;;20.93;58.41;99205.88;4975978;28;114706;-88
2022/06/28 02:22:09;;;;;;;1.20;1.10;;;20.40;93.10;;;20.92;58.59;99197.81;4979303;28;124459;-89
2022/06/28 02:24:35;;;;;;;1.30;1.20;;;20.40;93.10;;;20.93;58.52;99193.84;4970520;28;124180;-89
2022/06/28 02:27:02;;;;;;;1.10;1.00;;;20.40;93.10;;;20.93;58.45;99193.84;4973059;28;114176;-88
2022/06/28 02:29:29;;;;;;;1.10;1.00;;;20.40;93.10;;;20.93;58.25;99182.63;4983304;28;113366;-88
2022/06/28 02:31:56;;;;;;;1.20;1.10;;;20.40;93.10;;;20.92;58.49;99184.59;4985212;28;124026;-88
2022/06/28 02:42:38;;;;;;;1.00;0.90;;;20.30;93.10;;;20.82;58.32;99209.66;4985983;28;124392;-88
2022/06/28 02:45:05;;;;;;;1.00;0.90;;;20.30;93.10;;;20.80;58.78;99206.44;4977397;28;123829;-89
2022/06/28 02:47:31;;;;;;;1.03;0.93;;;20.30;93.10;;;20.77;58.28;99202.38;4978879;28;113514;-88
2022/06/28 02:49:58;;;;;;;1.20;1.10;;;20.30;93.10;;;20.76;58.75;99203.53;4982435;28;114343;-89
2022/06/28 02:52:24;;;;;;;1.73;1.17;;;20.20;93.10;;;20.74;58.45;99206.72;4990397;28;124233;-87
2022/06/28 02:54:52;;;;;;;1.00;0.90;;;20.20;93.20;;;20.73;58.92;99207.88;4982844;28;123837;-88
2022/06/28 02:57:18;;;;;;;1.10;1.00;;;20.20;93.20;;;20.72;59.07;99211.91;4982799;28;113140;-87
2022/06/28 02:59:45;;;;;;;1.30;0.90;;;20.20;93.30;;;20.73;59.00;99209.91;4983564;28;113889;-89
2022/06/28 03:02:12;;;;;;;2.20;1.07;;;20.20;93.30;;;20.70;58.65;99210.63;4978892;28;124001;-87
2022/06/28 03:04:39;;;;;;;1.20;1.10;;;20.20;93.30;;;20.70;58.63;99213.44;4977657;28;123822;-88
2022/06/28 03:07:05;;;;;;;1.20;1.10;;;20.20;93.30;;;20.68;58.67;99216.59;4977260;28;114499;-88
2022/06/28 03:09:32;;;;;;;1.13;0.97;;;20.10;93.30;;;20.66;58.84;99216.19;4989276;28;114118;-88
2022/06/28 03:11:58;;;;;;;1.10;1.00;;;20.10;93.30;;;20.65;58.77;99210.94;4980567;28;124055;-86
2022/06/28 03:14:25;;;;;;;1.10;1.00;;;20.10;93.30;;;20.63;59.01;99219.75;4982994;28;122825;-88
2022/06/28 03:16:51;;;;;;;1.07;0.97;;;20.10;93.30;;;20.62;58.71;99206.06;4973767;28;116072;-88
2022/06/28 03:19:18;;;;;;;1.20;1.10;;;20.10;93.60;;;20.60;58.69;99223.25;4986199;28;112982;-88
2022/06/28 03:21:44;;;;;;;1.40;0.90;;;20.10;93.30;;;20.58;59.11;99217.22;4986598;28;124770;-88
2022/06/28 03:24:11;;;;;;;1.03;0.93;;;20.00;93.30;;;20.58;59.12;99222.00;4990279;28;123570;-89
2022/06/28 03:26:37;;;;;;;1.20;1.10;;;20.00;93.30;;;20.56;58.91;99213.97;4985276;28;114235;-87
2022/06/28 03:29:04;;;;;;;1.33;1.23;;;20.00;93.30;;;20.53;58.98;99214.69;4987684;28;114813;-89
2022/06/28 03:31:31;;;;;;;1.10;1.00;;;20.00;93.30;;;20.50;59.26;99219.03;4984017;28;124236;-88
2022/06/28 03:33:57;;;;;;;1.10;1.00;;;20.00;93.30;;;20.49;59.32;99225.00;4985176;28;123848;-87
2022/06/28 03:36:24;;;;;;;1.17;1.07;;;20.00;93.40;;;20.46;59.11;99220.94;4989066;28;114820;-88
2022/06/28 03:38:51;;;;;;;1.70;1.07;;;19.90;93.30;;;20.45;58.96;99230.56;4988489;28;113547;-88
2022/06/28 03:41:22;;;;;;;1.50;1.20;;;19.90;93.40;;;20.46;59.20;99229.38;4994828;28;124305;-89
2022/06/28 03:43:52;;;;;;;1.10;1.00;;;19.90;93.40;;;20.45;59.41;99235.38;4982675;28;123847;-89
2022/06/28 03:46:20;;;;;;;1.27;1.17;;;19.90;93.40;;;20.41;59.05;99235.28;4994900;28;113926;-89
2022/06/28 03:48:48;;;;;;;1.30;1.20;;;19.90;93.40;;;20.39;58.97;99231.19;4987768;28;114002;-88
2022/06/28 03:51:16;;;;;;;1.17;1.07;;;19.90;93.40;;;20.36;59.13;99226.31;4991344;28;122019;-87
2022/06/28 03:53:43;;;;;;;1.50;1.20;;;19.90;93.40;;;20.37;58.91;99225.16;4982833;28;124195;-88
2022/06/28 03:56:10;;;;;;;1.60;1.20;;;19.80;93.40;;;20.36;59.06;99226.31;4983013;28;114716;-88
2022/06/28 03:58:37;;;;;;;1.13;1.00;;;19.80;93.40;;;20.35;59.45;99225.53;4984418;28;114765;-89
2022/06/28 04:01:04;;;;;;;2.60;1.20;;;19.80;93.40;;;20.30;58.87;99229.41;4988396;28;122675;-89
2022/06/28 04:03:30;;;;;;;1.13;1.03;;;19.80;93.50;;;20.30;59.10;99229.41;4976841;28;124080;-89
2022/06/28 04:05:57;;;;;;;1.20;1.10;;;19.70;93.40;;;20.28;59.31;99233.78;4990715;28;115103;-89
2022/06/28 04:08:23;;;;;;;1.70;1.40;;;19.70;93.40;;;20.25;59.52;99226.09;4992509;28;113423;-88
2022/06/28 04:11:13;;;;;;;1.63;1.30;;;19.70;93.40;;;20.24;59.59;99232.91;4989691;28;124161;-88
2022/06/28 04:13:42;;;;;;;2.40;1.30;;;19.70;93.50;;;20.23;59.79;99239.66;4992840;28;123739;-89
2022/06/28 04:16:09;;;;;;;1.57;1.30;;;19.70;93.50;;;20.20;59.71;99234.78;4987240;28;115225;-88
2022/06/28 04:18:36;;;;;;;2.03;1.50;;;19.70;93.50;;;20.19;59.54;99225.56;4982402;28;114873;-87
2022/06/28 04:21:03;;;;;;;1.90;1.50;;;19.70;93.60;;;20.19;59.79;99239.59;4990583;28;123296;-88
2022/06/28 04:23:29;;;;;;;5.13;1.20;;;19.60;93.60;;;20.18;59.86;99237.97;4973081;28;123776;-86
2022/06/28 04:25:56;;;;;;;1.20;1.10;;;19.60;93.70;;;20.17;59.78;99239.13;4974057;28;114408;-87
2022/06/28 04:28:23;;;;;;;1.50;1.30;;;19.60;93.70;;;20.14;59.57;99225.84;4975438;28;113058;-87
2022/06/28 04:30:50;;;;;;;1.77;1.50;;;19.60;93.70;;;20.12;59.94;99227.41;4974935;28;122423;-88
2022/06/28 04:33:16;;;;;;;1.93;1.10;;;19.60;93.70;;;20.07;60.07;99234.94;4973771;28;123810;-87
2022/06/28 04:35:43;;;;;;;1.70;1.27;;;19.60;93.70;;;20.07;60.06;99225.72;4977206;28;113876;-87
2022/06/28 04:38:09;;;;;;;2.60;1.20;;;19.50;93.70;;;20.08;59.90;99235.75;4991992;28;112916;-87
2022/06/28 04:40:36;;;;;;;2.53;1.50;;;19.50;93.80;;;20.08;59.86;99233.75;4985144;28;124818;-87
2022/06/28 04:43:04;;;;;;;3.47;1.33;;;19.50;93.80;;;20.10;59.84;99224.97;4992705;28;124372;-87
2022/06/28 04:45:31;;;;;;;1.23;1.13;;;19.50;93.90;;;20.11;59.88;99232.19;4979464;28;114330;-87
2022/06/28 04:47:57;;;;;;;2.23;1.50;;;19.50;93.90;;;20.09;60.13;99231.75;4983013;28;114270;-88
2022/06/28 04:50:24;;;;;;;1.67;1.27;;;19.60;93.90;;;20.06;60.21;99240.91;4974170;28;124769;-87
2022/06/28 04:52:50;;;;;;;2.07;1.30;;;19.50;93.90;;;20.01;60.16;99247.59;4979587;28;123878;-88
2022/06/28 04:55:18;;;;;;;1.30;1.10;;;19.50;93.90;;;19.97;60.25;99254.31;4986467;28;112995;-87
2022/06/28 04:57:44;;;;;;;1.60;1.20;;;19.50;93.90;;;19.93;60.29;99236.56;4979358;28;114605;-88
2022/06/28 05:00:12;;;;;;;2.80;1.23;;;19.50;94.00;;;19.94;60.49;99236.22;4981350;28;123621;-87
2022/06/28 05:02:39;;;;;;;1.53;1.37;;;19.40;94.00;;;19.96;60.61;99245.09;4978776;28;124499;-88
2022/06/28 05:05:08;;;;;;;1.30;1.20;;;19.40;94.10;;;19.98;60.69;99239.91;4978725;28;115408;-87
2022/06/28 05:07:36;;;;;;;1.43;1.33;;;19.50;94.20;;;20.01;60.64;99246.78;4963763;28;114370;-86
2022/06/28 05:10:04;;;;;;;1.90;1.70;;;19.50;94.20;;;20.01;60.62;99253.19;4973945;28;124162;-87
2022/06/28 05:12:30;;;;;;;2.10;1.93;;;19.50;94.30;;;20.01;60.56;99243.97;4969885;28;122223;-86
2022/06/28 05:14:57;;;;;;;2.10;1.90;;;19.50;94.30;;;20.02;60.96;99234.41;4983747;28;112624;-87
2022/06/28 05:17:24;;;;;;;2.70;2.00;;;19.50;94.40;;;20.01;61.04;99233.56;4977939;28;113912;-87
2022/06/28 05:19:51;;;;;;;2.30;2.10;;;19.50;94.50;;;20.03;61.16;99225.59;4984222;28;123893;-86
2022/06/28 05:22:17;;;;;;;2.23;2.03;;;19.50;94.60;;;20.05;61.06;99228.06;4977781;28;123358;-86
2022/06/28 05:24:44;;;;;;;2.03;1.83;;;19.50;94.60;;;20.06;60.96;99224.06;4980973;28;113742;-86
2022/06/28 05:27:10;;;;;;;2.37;2.17;;;19.50;94.60;;;20.08;61.14;99224.53;4974637;28;114030;-86
2022/06/28 05:29:37;;;;;;;2.10;1.90;;;19.50;94.70;;;20.12;61.28;99227.41;4985661;28;123697;-86
2022/06/28 05:32:04;;;;;;;2.33;2.00;;;19.50;94.80;;;20.17;61.24;99218.69;4976159;28;124310;-86
2022/06/28 05:34:30;;;;;;;4.70;3.10;;;19.60;94.90;;;20.20;61.26;99223.56;4983536;28;113395;-85
2022/06/28 05:36:57;;;;;;;2.77;2.57;;;19.60;95.10;;;20.19;61.61;99231.19;4980718;28;114562;-88
2022/06/28 05:39:23;;;;;;;3.50;2.83;;;19.60;95.10;;;20.21;61.54;99228.81;4960360;28;122161;-85
2022/06/28 05:41:50;;;;;;;2.77;2.53;;;19.60;95.10;;;20.26;61.22;99224.94;4987043;28;123366;-86
2022/06/28 05:44:16;;;;;;;2.80;2.50;;;19.70;95.10;;;20.33;61.33;99227.06;4983321;28;114768;-86
2022/06/28 05:46:44;;;;;;;4.77;3.33;;;19.70;95.10;;;20.37;61.42;99222.34;4975963;28;114460;-85
2022/06/28 05:49:11;;;;;;;4.20;2.90;;;19.70;95.20;;;20.36;61.51;99218.72;4986201;28;124274;-86
2022/06/28 05:51:38;;;;;;;2.93;2.73;;;19.80;95.30;;;20.39;61.48;99226.44;4980979;28;124129;-86
2022/06/28 05:54:05;;;;;;;3.37;3.07;;;19.80;95.30;;;20.43;61.45;99232.09;4976317;28;114364;-86
2022/06/28 05:56:32;;;;;;;4.13;3.23;;;19.80;95.20;;;20.46;61.65;99225.75;4983265;28;115139;-87
2022/06/28 05:58:58;;;;;;;4.30;3.83;;;19.90;95.30;;;20.46;61.42;99228.56;4983167;28;124467;-85
2022/06/28 06:01:25;;;;;;;4.60;3.33;;;19.90;95.40;;;20.46;61.64;99220.13;4961638;28;122511;-86
2022/06/28 06:03:52;;;;;;;3.47;3.17;;;19.90;95.30;;;20.47;61.39;99225.41;4976651;28;115327;-84
2022/06/28 06:06:19;;;;;;;5.70;3.03;;;19.90;95.20;;;20.49;61.30;99225.00;4991223;28;113457;-86
2022/06/28 06:08:45;;;;;;;9.80;3.37;;;19.90;95.20;;;20.51;61.74;99228.28;4986464;28;124805;-88
2022/06/28 06:11:12;;;;;;;3.20;2.90;;;19.90;95.20;;;20.54;61.63;99232.38;4990972;28;122148;-89
2022/06/28 06:13:39;;;;;;;4.40;2.97;;;20.00;95.10;;;20.56;61.21;99224.41;4977591;28;114496;-88
2022/06/28 06:16:06;;;;;;;3.03;2.80;;;20.00;95.00;;;20.60;61.02;99220.47;4990911;28;113771;-88
2022/06/28 06:18:33;;;;;;;3.20;2.90;;;20.00;94.90;;;20.62;60.95;99218.09;4973678;28;123855;-89
2022/06/28 06:20:59;;;;;;;3.53;3.20;;;20.00;94.90;;;20.67;61.10;99220.63;4982203;28;123919;-88
2022/06/28 06:23:26;;;;;;;3.53;3.23;;;20.10;94.90;;;20.70;60.73;99222.69;4970601;28;114157;-89
2022/06/28 06:25:52;;;;;;;3.03;2.80;;;20.10;94.90;;;20.74;60.63;99211.53;4978922;28;114010;-86
2022/06/28 06:28:19;;;;;;;3.00;2.80;;;20.20;95.20;;;20.78;60.70;99208.78;4975393;28;124008;-89
2022/06/28 06:30:46;;;;;;;2.87;2.67;;;20.20;94.80;;;20.86;60.65;99216.16;4984417;28;123655;-85
2022/06/28 06:33:12;;;;;;;3.80;2.47;;;20.30;94.90;;;20.92;60.69;99209.06;4980929;28;113899;-85
2022/06/28 06:35:39;;;;;;;4.03;3.60;;;20.30;94.80;;;20.95;60.31;99209.16;4985296;28;114645;-86
2022/06/28 06:38:05;;;;;;;6.20;3.07;;;20.30;94.80;;;20.95;60.05;99213.94;4979446;28;124621;-87
2022/06/28 06:40:32;;;;;;;5.83;3.40;;;20.30;94.70;;;21.00;60.43;99224.06;4983144;28;123463;-85
2022/06/28 06:42:58;;;;;;;5.60;3.27;;;20.40;94.70;;;21.04;60.26;99217.34;4988172;28;115327;-86
2022/06/28 06:45:25;;;;;;;4.40;2.67;;;20.40;94.60;;;21.08;60.00;99217.38;4974124;28;114737;-86
2022/06/28 06:47:51;;;;;;;4.70;3.23;;;20.50;94.60;;;21.13;59.92;99208.66;4987323;28;124280;-88
2022/06/28 06:50:20;;;;;;;2.90;2.60;;;20.50;94.50;;;21.17;59.75;99198.28;4972027;28;122964;-90
2022/06/28 06:52:46;;;;;;;2.77;2.57;;;20.50;94.40;;;21.22;59.57;99199.97;4982211;28;114441;-87
2022/06/28 06:55:13;;;;;;;3.10;2.80;;;20.60;94.40;;;21.28;59.45;99199.31;4983152;28;115103;-83
2022/06/28 06:57:39;;;;;;;10.63;3.93;;;20.60;94.40;;;21.26;59.31;99184.00;4971114;28;123655;-87
2022/06/28 07:00:09;;;;;;;6.67;3.10;;;20.60;94.20;;;21.24;59.69;99186.38;4982946;28;122869;-84
2022/06/28 07:02:42;;;;;;;5.80;3.30;;;20.60;94.20;;;21.24;59.51;99166.69;4995679;28;115608;-86
2022/06/28 07:05:10;;;;;;;8.10;3.63;;;20.70;94.20;;;21.23;59.40;99151.03;4974146;28;113895;-86
2022/06/28 07:07:37;;;;;;;4.60;3.13;;;20.60;94.20;;;21.24;59.75;99138.59;4974397;28;124245;-86
2022/06/28 07:10:04;;;;;;;5.80;3.80;;;20.70;94.20;;;21.26;59.33;99128.59;4974266;28;125232;-85
2022/06/28 07:12:31;;;;;;;5.07;3.20;;;20.70;94.20;;;21.30;59.34;99118.22;4959450;28;113476;-85
2022/06/28 07:14:57;;;;;;;6.73;3.07;;;20.70;94.20;;;21.34;59.22;99113.47;4977548;28;112836;-85
2022/06/28 07:17:24;;;;;;;7.60;3.00;;;20.70;94.20;;;21.38;59.53;99121.97;4973069;28;123814;-85
2022/06/28 07:19:50;;;;;;;17.13;5.30;;;20.80;94.20;;;21.37;59.00;99123.97;4969084;28;123815;-85
2022/06/28 07:22:17;;;;;;;12.47;4.87;;;20.80;94.10;;;21.31;59.21;99124.66;4985104;28;113629;-86
2022/06/28 07:24:43;;;;;;;11.30;4.53;;;20.80;94.10;;;21.31;59.60;99135.91;4973098;28;113602;-87
2022/06/28 07:27:10;;;;;;;9.87;4.17;;;20.70;94.10;;;21.31;59.52;99135.91;4974741;28;124487;-85
2022/06/28 07:29:36;;;;;;;7.93;3.70;;;20.70;94.10;;;21.31;59.63;99152.78;4975529;28;123871;-83
2022/06/28 07:32:03;;;;;;;7.80;4.00;;;20.70;94.10;;;21.34;59.24;99152.00;4974315;28;115451;-86
2022/06/28 07:34:31;;;;;;;4.33;3.93;;;20.80;94.20;;;21.30;59.60;99157.56;5004415;28;114787;-85
2022/06/28 07:36:57;;;;;;;4.60;4.03;;;20.80;94.20;;;21.26;59.54;99162.31;4980713;28;123445;-84
2022/06/28 07:39:24;;;;;;;4.47;3.47;;;20.70;94.10;;;21.27;59.67;99165.94;4986800;28;123809;-83
2022/06/28 07:41:50;;;;;;;4.10;3.70;;;20.70;94.10;;;21.31;59.58;99164.81;4982352;28;114775;-85
2022/06/28 07:44:17;;;;;;;9.63;4.60;;;20.70;94.10;;;21.37;59.65;99165.31;4988688;28;114086;-85
2022/06/28 07:46:43;;;;;;;10.53;4.30;;;20.80;94.50;;;21.38;59.47;99164.16;4986550;28;122979;-85
2022/06/28 07:49:10;;;;;;;11.43;5.27;;;20.80;94.10;;;21.41;59.28;99169.00;4982787;28;125307;-86
2022/06/28 07:54:22;;;;;;;8.23;4.20;;;20.90;94.00;;;21.48;58.85;99174.75;4973916;28;114558;-88
2022/06/28 07:56:49;;;;;;;8.40;3.83;;;20.90;94.10;;;21.47;58.85;99173.16;4994146;28;124932;-85
2022/06/28 07:59:15;;;;;;;4.20;3.67;;;20.90;93.90;;;21.51;58.76;99174.00;4973726;28;123941;-86
2022/06/28 08:01:42;;;;;;;4.30;3.90;;;20.90;93.90;;;21.57;59.13;99169.69;4969945;28;113594;-84
2022/06/28 08:04:10;;;;;;;4.13;3.30;;;21.00;93.90;;;21.67;59.07;99173.03;4974301;28;113803;-85
2022/06/28 08:06:37;;;;;;;3.60;3.03;;;21.00;93.90;;;21.77;58.49;99175.22;4981950;28;123570;-87
2022/06/28 08:09:05;;;;;;;5.63;2.90;;;21.10;93.90;;;21.85;58.49;99160.06;4965140;28;122335;-85
2022/06/28 08:11:32;;;;;;;3.40;3.10;;;21.20;93.90;;;21.94;58.39;99168.22;4980128;28;114440;-87
2022/06/28 08:14:02;;;;;;;3.93;3.40;;;21.30;93.90;;;22.01;58.09;99163.53;4984866;28;114382;-84
2022/06/28 08:16:28;;;;;;;3.10;2.70;;;21.30;93.70;;;22.05;57.91;99153.09;4983815;28;124769;-85
2022/06/28 08:18:55;;;;;;;4.10;3.37;;;21.40;93.70;;;22.11;57.71;99136.72;4986622;28;124553;-85
2022/06/28 08:21:22;;;;;;;3.67;3.27;;;21.50;93.90;;;22.14;57.54;99126.69;4969162;28;114330;-86
2022/06/28 08:23:48;;;;;;;3.47;3.00;;;21.50;93.50;;;22.18;57.50;99134.03;4970520;28;116098;-85
2022/06/28 08:26:15;;;;;;;4.57;3.30;;;21.50;93.40;;;22.23;57.68;99130.06;4978468;28;124238;-84
2022/06/28 08:28:41;;;;;;;4.43;3.20;;;21.60;93.30;;;22.22;57.15;99123.63;4981875;28;123601;-84
2022/06/28 08:31:08;;;;;;;3.20;3.00;;;21.60;93.10;;;22.21;57.50;99126.81;4976378;28;114649;-84
2022/06/28 08:33:34;;;;;;;3.50;3.20;;;21.70;93.10;;;22.24;57.54;99129.66;4978264;28;113994;-84
2022/06/28 08:36:01;;;;;;;6.53;3.20;;;21.70;93.10;;;22.29;57.23;99134.16;4973763;28;124096;-83
2022/06/28 08:38:27;;;;;;;3.77;3.00;;;21.70;93.00;;;22.36;56.71;99133.44;4984691;28;123470;-83
2022/06/28 08:40:54;;;;;;;3.20;2.90;;;21.80;93.00;;;22.46;57.17;99127.94;4976254;28;113303;-84
2022/06/28 08:43:22;;;;;;;2.93;2.73;;;21.80;93.00;;;22.57;56.76;99122.44;4982553;28;114381;-84
2022/06/28 08:45:49;;;;;;;5.00;3.07;;;21.90;92.90;;;22.66;56.12;99124.94;4989748;28;124075;-85
2022/06/28 08:48:45;;;;;;;4.13;3.40;;;22.00;92.70;;;22.68;56.05;99125.38;4979928;28;123910;-85
2022/06/28 08:51:12;;;;;;;3.50;3.20;;;22.10;92.40;;;22.77;55.69;99114.59;4977523;28;114339;-88
2022/06/28 08:53:40;;;;;;;2.77;2.57;;;22.10;92.40;;;22.89;55.71;99110.66;4977255;28;114463;-83
2022/06/28 08:56:09;;;;;;;2.50;2.30;;;22.20;92.40;;;23.01;55.43;99113.25;4976537;28;124085;-85
2022/06/28 08:58:42;;;;;;;3.30;3.00;;;22.30;92.30;;;23.10;55.16;99116.53;4974310;28;122234;-84
2022/06/28 09:01:13;;;;;;;3.73;2.90;;;22.40;92.20;;;23.20;54.81;99108.56;4994371;28;114188;-86
2022/06/28 09:03:40;;;;;;;5.93;3.23;;;22.50;92.10;;;23.25;54.57;99106.19;4984306;28;113225;-85
2022/06/28 09:06:07;;;;;;;3.17;2.50;;;22.60;91.80;;;23.30;54.65;99103.03;4973621;28;124435;-86
2022/06/28 09:08:34;;;;;;;5.57;2.90;;;22.70;91.80;;;23.33;54.13;99096.59;4977264;28;123072;-86
2022/06/28 09:11:01;;;;;;;6.73;2.90;;;22.70;91.40;;;23.31;53.87;99096.16;4967063;28;113873;-86
2022/06/28 09:13:27;;;;;;;4.73;3.13;;;22.70;91.20;;;23.31;54.17;99093.34;4982666;28;115117;-85
2022/06/28 09:16:06;;;;;;;5.23;3.17;;;22.70;91.30;;;23.31;54.02;99093.34;4972198;28;124201;-87
2022/06/28 09:18:36;;;;;;;6.10;3.67;;;22.80;91.20;;;23.32;54.12;99095.00;4983258;28;123066;-85
2022/06/28 09:21:07;;;;;;;3.43;2.73;;;23.60;91.60;;;23.36;54.01;99089.38;4982357;28;113872;-84
2022/06/28 09:23:41;;;;;;;2.50;2.30;;;22.80;91.20;;;23.43;54.00;99091.41;4971527;28;114203;-85
2022/06/28 09:26:17;;;;;;;4.00;2.63;;;22.90;91.20;;;23.48;53.73;99093.88;4973221;28;124317;-87
2022/06/28 09:28:52;;;;;;;3.07;2.63;;;22.90;91.10;;;23.53;53.69;99096.31;4985460;28;124421;-86
2022/06/28 09:31:29;;;;;;;2.43;2.23;;;23.00;91.10;;;23.58;53.59;99095.97;4978458;28;114748;-84
2022/06/28 09:34:04;;;;;;;2.23;2.03;;;23.00;91.00;;;23.65;53.24;99098.84;4978069;28;114222;-84
2022/06/28 09:36:58;;;;;;;2.10;1.90;;;23.10;90.90;;;23.73;53.32;99102.53;4977409;28;124622;-84
2022/06/28 09:39:29;;;;;;;2.97;2.30;;;23.10;90.90;;;23.79;52.90;99096.13;4981935;28;123914;-84
2022/06/28 09:41:57;;;;;;;2.40;2.20;;;23.20;90.60;;;23.84;52.70;99091.31;4991759;28;114565;-86
2022/06/28 09:44:29;;;;;;;2.23;1.80;;;23.20;90.50;;;23.87;52.69;99099.00;4991961;28;114912;-84
2022/06/28 09:46:59;;;;;;;2.43;2.10;;;23.30;90.50;;;23.90;52.68;99098.19;4992582;28;123796;-86
2022/06/28 09:49:30;;;;;;;2.57;1.53;;;23.30;90.40;;;23.97;52.61;99089.78;4978416;28;123789;-86
2022/06/28 09:52:01;;;;;;;1.90;1.80;;;23.40;90.40;;;24.03;52.47;99086.16;5000801;28;113971;-86
2022/06/28 09:54:29;;;;;;;1.80;1.70;;;23.50;90.40;;;24.09;52.03;99083.78;4971752;28;113381;-85
2022/06/28 09:56:57;;;;;;;1.93;1.60;;;23.50;90.20;;;24.11;51.57;99070.06;4985121;28;123861;-86
2022/06/28 09:59:27;;;;;;;2.07;1.87;;;23.50;89.80;;;24.16;51.74;99066.88;4980040;28;123825;-86
2022/06/28 10:01:56;;;;;;;2.20;2.00;;;23.60;89.90;;;24.23;51.42;99083.00;4975735;28;115182;-86
2022/06/28 10:04:24;;;;;;;2.13;1.83;;;23.60;89.60;;;24.29;51.25;99081.44;4981219;28;114919;-86
2022/06/28 10:06:52;;;;;;;2.40;2.20;;;23.70;89.60;;;24.33;50.99;99078.63;4971132;28;124162;-84
2022/06/28 10:09:20;;;;;;;3.03;1.97;;;23.70;89.00;;;24.31;50.70;99072.56;4969824;28;123368;-86
2022/06/28 10:17:47;;;;;;;1.63;1.53;;;23.80;88.60;;;24.34;50.77;99060.47;4991250;28;124965;-85
2022/06/28 10:20:37;;;;;;;3.00;2.13;;;23.80;89.10;;;24.39;50.57;99043.13;4996744;28;123676;-86
2022/06/28 10:23:40;;;;;;;4.10;1.87;;;23.90;88.00;;;24.41;50.76;99040.72;5007456;28;114315;-86
2022/06/28 10:26:16;;;;;;;2.07;1.90;;;23.90;88.30;;;24.48;50.46;99037.94;4993032;28;114840;-83
2022/06/28 10:28:46;;;;;;;1.73;1.63;;;22.60;87.70;;;24.52;50.15;99027.44;4988418;28;123294;-86
2022/06/28 10:31:21;;;;;;;2.30;2.10;;;24.00;87.60;;;24.55;50.12;99040.78;4974832;28;125944;-85
2022/06/28 10:34:04;;;;;;;2.50;1.70;;;24.00;87.60;;;24.59;49.80;99030.28;4985473;28;114557;-86
2022/06/28 10:36:48;;;;;;;3.23;1.90;;;24.10;87.60;;;24.60;49.74;99026.25;4976289;28;114161;-86